CDT,Max TemperatureF,Mean TemperatureF,Min TemperatureF,Max Dew PointF,MeanDew PointF,Min DewpointF,Max Humidity, Mean Humidity, Min Humidity, Max Sea Level PressureIn, Mean Sea Level PressureIn, Min Sea Level PressureIn, Max VisibilityMiles, Mean VisibilityMiles, Min VisibilityMiles, Max Wind SpeedMPH, Mean Wind SpeedMPH, Max Gust SpeedMPH,PrecipitationIn, CloudCover, Events, WindDirDegrees
2013-9-1,101,89,77,71,68,65,76,55,33,29.89,29.84,29.77,10,9,7,17,7,24,0.12,1,Thunderstorm,203
2013-9-2,95,85,74,74,71,66,87,67,46,29.98,29.89,29.85,10,9,2,12,3,14,0.02,3,Rain-Thunderstorm,299
2013-9-3,97,85,73,74,70,64,93,65,36,29.98,29.93,29.87,10,9,4,14,5,18,0.00,2,,50
2013-9-4,97,84,70,66,61,54,79,55,30,30.09,30.03,29.98,10,10,10,14,6,22,0.00,0,,63
2013-9-5,96,81,65,64,59,53,81,54,27,30.14,30.08,30.03,10,10,10,13,4,17,0.00,0,,52
2013-9-6,97,82,66,66,61,55,87,56,25,30.11,30.04,29.97,10,10,8,13,4,17,0.00,0,,53
2013-9-7,99,85,70,69,62,59,73,52,30,30.05,29.98,29.91,10,10,9,10,3,16,0.00,1,,150
2013-9-8,99,86,73,67,63,56,74,50,25,30.00,29.94,29.87,10,10,10,13,5,15,0.00,0,,220
2013-9-9,98,86,73,68,63,59,73,51,29,30.03,29.97,29.93,10,10,8,15,6,22,0.00,1,,184
2013-9-10,97,83,69,68,63,61,78,54,30,30.12,30.06,29.99,10,10,9,14,4,21,0.00,1,,165
2013-9-11,93,82,71,68,67,64,84,63,41,30.11,30.07,30.02,10,8,5,14,3,18,0.00,1,,94
2013-9-12,96,83,70,70,67,65,90,63,35,30.07,30.01,29.92,10,8,4,15,2,22,T,3,,7
2013-9-13,92,82,72,70,66,55,87,64,41,29.99,29.94,29.86,10,8,5,15,7,20,0.00,1,,54
2013-9-14,87,76,64,56,53,48,73,51,29,30.05,29.99,29.94,10,10,10,13,6,20,0.00,1,,71
2013-9-15,94,75,56,61,55,49,83,57,31,30.08,30.03,29.99,10,10,10,9,2,13,0.00,0,,78
2013-9-16,97,82,66,65,58,52,68,49,29,30.11,30.05,29.99,10,10,10,13,4,16,0.00,1,,80
2013-9-17,93,83,72,68,61,36,74,47,20,30.11,30.04,29.98,10,10,6,8,3,12,T,3,Rain,83
2013-9-18,94,84,74,69,67,61,87,63,39,30.04,29.98,29.91,10,9,6,13,4,15,0.00,2,,118
2013-9-19,96,86,75,71,68,64,82,61,39,30.03,29.98,29.95,10,10,10,24,8,35,T,0,,166
2013-9-20,75,72,69,72,70,68,100,97,93,29.87,29.84,29.80,10,5,2,14,6,18,6.68,8,Rain,37
2013-9-21,80,69,57,68,60,50,93,65,36,29.95,29.89,29.85,10,10,10,17,6,22,0.00,3,,27
2013-9-22,80,67,54,56,53,49,100,68,35,29.95,29.89,29.83,10,10,10,14,4,20,0.00,0,,63
2013-9-23,82,68,53,61,55,51,100,68,36,29.91,29.86,29.80,10,10,10,12,3,17,0.00,0,,90
2013-9-24,92,77,62,62,57,50,93,60,26,29.89,29.84,29.79,10,10,10,16,4,22,0.00,1,,324
2013-9-25,87,74,60,63,57,55,84,60,35,29.88,29.83,29.79,10,10,10,14,4,21,0.00,0,,299
2013-9-26,89,75,60,63,60,55,97,66,34,29.96,29.89,29.83,10,10,5,9,2,14,0.00,0,,109
2013-9-27,89,76,63,63,62,61,87,63,38,30.01,29.95,29.92,10,10,9,13,6,20,0.00,1,,130
2013-9-28,88,79,69,73,69,62,100,76,51,30.04,29.98,29.92,10,6,0,25,6,31,1.89,7,Fog-Rain-Thunderstorm,180
2013-9-29,79,75,70,72,70,69,100,87,74,30.02,29.97,29.89,10,6,1,9,2,10,1.13,7,Rain,14
2013-9-30,82,76,70,72,70,68,93,79,65,29.92,29.89,29.84,10,6,2,8,3,15,0.02,7,Rain,186